EGXW/WTN METAR and TAF weather

Enter ICAO airport designator
Station Type Date Time Source
EGXW METAR 2019/04/18 19:50 UTC NOAA

EGXW 181950Z 07008KT CAVOK 10/07 Q1027 BLU NOSIG


Station Type Date Time Source
EGXW Decoded METAR 2019/04/18 19:50 UTC NOAA

Waddington, United Kingdom (EGXW) 53-10N 000-31W 0M
Apr 18, 2019 - 03:50 PM EDT / 2019.04.18 1950 UTC
Wind: from the ENE (070 degrees) at 9 MPH (8 KT):0
Visibility: greater than 7 mile(s):0
Temperature: 50 F (10 C)
Dew Point: 44 F (7 C)
Relative Humidity: 81%
Pressure (altimeter): 30.33 in. Hg (1027 hPa)
ob: EGXW 181950Z 07008KT CAVOK 10/07 Q1027 BLU NOSIG
cycle: 20

Station Type Date Time Source
EGXW TAF 2019/04/18 21:33 UTC NOAA

TAF EGXW 181921Z 1821/1915 07008KT CAVOK PROB40 1900/1909 5000 HZ

Example: see airport list